Time;durP1;ratioP1;P1;durP2;ratioP2;P2;SDS_P1;SDS_P2;PMS_P1;PMS_P2;Temp;Humidity;BMP_temperature;BMP_pressure;BME280_temperature;BME280_humidity;BME280_pressure;Samples;Min_cycle;Max_cycle;Signal;HPM_P1;HPM_P2
2022/10/30 00:00:26;;;;;;;14.90;6.87;;;20.80;65.00;;;;;;5044904;28;20435;-58
2022/10/30 00:02:53;;;;;;;9.67;7.07;;;20.90;64.80;;;;;;5039271;28;20449;-58
2022/10/30 00:05:19;;;;;;;10.30;6.53;;;20.90;64.40;;;;;;5046952;28;20228;-58
2022/10/30 00:07:46;;;;;;;13.37;7.00;;;20.90;64.50;;;;;;5045333;28;20447;-58
2022/10/30 00:10:12;;;;;;;11.80;6.07;;;20.90;64.40;;;;;;5046254;28;20435;-58
2022/10/30 00:12:37;;;;;;;9.13;6.63;;;20.80;64.30;;;;;;5043914;28;20504;-58
2022/10/30 00:15:04;;;;;;;10.50;6.60;;;20.80;64.50;;;;;;5045494;28;20203;-58
2022/10/30 00:17:29;;;;;;;16.67;6.70;;;20.80;64.30;;;;;;5046343;28;20271;-58
2022/10/30 00:19:55;;;;;;;11.80;7.00;;;20.80;64.40;;;;;;5045751;28;20526;-58
2022/10/30 00:22:20;;;;;;;14.07;6.00;;;20.40;65.20;;;;;;5039549;28;20193;-58
2022/10/30 00:24:46;;;;;;;10.20;5.93;;;20.20;66.20;;;;;;5046965;28;20239;-58
2022/10/30 00:27:12;;;;;;;13.60;6.23;;;20.00;66.90;;;;;;5046922;28;20237;-58
2022/10/30 00:29:37;;;;;;;10.03;6.37;;;20.00;67.20;;;;;;5043213;28;20243;-58
2022/10/30 00:32:03;;;;;;;10.33;6.30;;;20.00;67.30;;;;;;5043888;28;20204;-58
2022/10/30 00:34:28;;;;;;;11.23;6.83;;;20.20;66.50;;;;;;5038973;28;20558;-58
2022/10/30 00:36:54;;;;;;;10.40;6.57;;;20.20;66.30;;;;;;5042826;28;20590;-58
2022/10/30 00:39:20;;;;;;;8.73;6.00;;;20.20;66.00;;;;;;5046981;28;20196;-58
2022/10/30 00:41:45;;;;;;;9.37;5.73;;;20.30;65.80;;;;;;5039075;28;20200;-58
2022/10/30 00:44:32;;;;;;;10.60;5.83;;;20.40;65.40;;;;;;5043165;28;20240;-58
2022/10/30 00:47:04;;;;;;;9.97;5.57;;;20.50;65.10;;;;;;5047293;28;20642;-58
2022/10/30 00:49:37;;;;;;;11.23;7.90;;;20.60;64.60;;;;;;5042483;28;20439;-58
2022/10/30 00:52:07;;;;;;;15.50;6.20;;;20.70;63.70;;;;;;5044830;28;20517;-58
2022/10/30 00:54:34;;;;;;;12.27;6.50;;;20.70;64.00;;;;;;5043900;28;20829;-58
2022/10/30 00:57:01;;;;;;;13.30;6.73;;;20.70;63.70;;;;;;5046358;28;20952;-58
2022/10/30 00:59:31;;;;;;;12.20;6.67;;;20.70;63.20;;;;;;5042521;28;20459;-58
2022/10/30 01:01:59;;;;;;;10.33;6.63;;;20.80;63.20;;;;;;5044235;28;20451;-58
2022/10/30 01:04:25;;;;;;;10.40;6.23;;;20.80;62.90;;;;;;5042166;28;20486;-58
2022/10/30 01:06:52;;;;;;;13.13;6.80;;;20.80;62.50;;;;;;5045693;28;20450;-58
2022/10/30 01:09:21;;;;;;;7.40;5.30;;;20.90;62.20;;;;;;5047594;28;20835;-58
2022/10/30 01:11:47;;;;;;;9.50;6.00;;;20.90;62.00;;;;;;5041757;28;20450;-58
2022/10/30 01:14:16;;;;;;;15.83;6.97;;;20.80;61.90;;;;;;5038563;28;20926;-58
2022/10/30 01:16:41;;;;;;;10.13;5.80;;;20.80;62.20;;;;;;5046590;28;20574;-58
2022/10/30 01:19:58;;;;;;;9.00;5.77;;;20.60;62.30;;;;;;5047150;28;20453;-58
2022/10/30 01:22:51;;;;;;;15.93;6.27;;;20.70;62.50;;;;;;5039748;28;20234;-58
2022/10/30 01:25:52;;;;;;;11.67;6.10;;;20.60;62.80;;;;;;5036090;28;20552;-58
2022/10/30 01:28:55;;;;;;;7.97;6.03;;;20.70;62.90;;;;;;5040549;28;20889;-58
2022/10/30 01:31:38;;;;;;;9.80;6.40;;;20.70;62.30;;;;;;5039611;28;20478;-58
2022/10/30 01:34:20;;;;;;;16.80;6.37;;;20.60;62.80;;;;;;5036859;28;20444;-58
2022/10/30 01:36:56;;;;;;;6.83;6.00;;;20.60;63.00;;;;;;5041087;28;20578;-58
2022/10/30 01:39:28;;;;;;;13.27;6.07;;;20.70;62.50;;;;;;5046175;28;20524;-58
2022/10/30 01:41:54;;;;;;;12.10;6.40;;;20.60;62.50;;;;;;5038605;28;20439;-58
2022/10/30 01:44:24;;;;;;;11.40;6.03;;;20.60;63.00;;;;;;5040613;28;20494;-58
2022/10/30 01:47:08;;;;;;;9.10;5.97;;;20.60;62.50;;;;;;5043186;28;20185;-58
2022/10/30 01:49:42;;;;;;;9.03;6.30;;;20.60;62.30;;;;;;5037556;28;20444;-58
2022/10/30 01:52:26;;;;;;;12.50;6.97;;;20.50;62.80;;;;;;5045128;28;20534;-58
2022/10/30 01:55:22;;;;;;;14.57;6.53;;;20.50;63.50;;;;;;5048170;28;20438;-58
2022/10/30 01:58:05;;;;;;;11.90;6.27;;;20.30;62.80;;;;;;5051060;28;20450;-58
2022/10/30 02:00:30;;;;;;;9.47;6.03;;;20.10;63.20;;;;;;5047560;28;20453;-58
2022/10/30 02:02:57;;;;;;;11.10;6.10;;;19.90;64.20;;;;;;5048196;28;20561;-58
2022/10/30 02:05:36;;;;;;;8.03;5.37;;;20.00;64.50;;;;;;5052965;28;20232;-58
2022/10/30 02:08:01;;;;;;;11.60;6.50;;;19.90;64.50;;;;;;5040467;28;21214;-58
2022/10/30 02:10:29;;;;;;;15.47;5.33;;;19.60;64.90;;;;;;5052703;28;20527;-58
2022/10/30 02:12:55;;;;;;;8.70;5.60;;;19.40;65.40;;;;;;5049791;28;20199;-58
2022/10/30 02:15:21;;;;;;;8.03;5.70;;;19.20;66.80;;;;;;5045542;28;20430;-58
2022/10/30 02:17:46;;;;;;;14.70;6.50;;;18.90;67.00;;;;;;5045397;28;20199;-58
2022/10/30 02:20:19;;;;;;;13.97;6.17;;;19.00;67.00;;;;;;5050415;28;20442;-58
2022/10/30 02:22:46;;;;;;;12.37;6.07;;;19.00;66.80;;;;;;5047068;28;20204;-58
2022/10/30 02:25:12;;;;;;;12.17;6.00;;;19.20;67.20;;;;;;5050257;28;20574;-58
2022/10/30 02:27:38;;;;;;;8.30;6.40;;;19.40;66.30;;;;;;5051626;28;20447;-58
2022/10/30 02:30:04;;;;;;;13.27;6.07;;;19.50;65.70;;;;;;5051802;28;20597;-58
2022/10/30 02:32:30;;;;;;;10.40;5.70;;;19.60;65.10;;;;;;5045540;28;20289;-58
2022/10/30 02:34:56;;;;;;;9.00;5.43;;;19.70;64.60;;;;;;5048477;28;20438;-58
2022/10/30 02:37:23;;;;;;;9.80;5.77;;;19.80;64.60;;;;;;5046244;28;20689;-58
2022/10/30 02:39:49;;;;;;;12.43;5.43;;;19.80;64.10;;;;;;5049551;28;20204;-58
2022/10/30 02:42:14;;;;;;;15.33;6.27;;;19.80;64.80;;;;;;5045728;28;20439;-58
2022/10/30 02:44:40;;;;;;;9.53;4.80;;;19.80;63.90;;;;;;5048372;28;20563;-57
2022/10/30 02:47:06;;;;;;;7.50;4.50;;;19.80;64.00;;;;;;5045483;28;20196;-58
2022/10/30 02:49:31;;;;;;;12.00;5.17;;;19.80;64.50;;;;;;5047911;28;20200;-58
2022/10/30 02:51:57;;;;;;;12.33;5.30;;;19.70;64.20;;;;;;5023744;28;20193;-58
2022/10/30 02:54:22;;;;;;;10.93;6.63;;;19.80;64.10;;;;;;5049230;28;20271;-58
2022/10/30 02:56:48;;;;;;;10.20;7.00;;;19.90;63.70;;;;;;5048665;28;20191;-58
2022/10/30 02:59:13;;;;;;;10.37;5.37;;;20.00;62.90;;;;;;5040852;28;20248;-58
2022/10/30 03:01:39;;;;;;;14.30;6.90;;;20.00;63.20;;;;;;5050768;28;20235;-58
2022/10/30 03:04:05;;;;;;;13.93;5.87;;;19.90;62.90;;;;;;5044063;28;20281;-58
2022/10/30 03:06:30;;;;;;;8.70;5.63;;;19.90;63.50;;;;;;5045832;28;20656;-58
2022/10/30 03:08:56;;;;;;;11.10;5.63;;;19.90;63.20;;;;;;5044761;28;20199;-58
2022/10/30 03:11:21;;;;;;;11.97;5.70;;;19.80;63.10;;;;;;5050531;28;20549;-58
2022/10/30 03:13:48;;;;;;;9.73;5.50;;;19.70;63.00;;;;;;5048143;28;20358;-58
2022/10/30 03:16:16;;;;;;;12.23;5.40;;;19.60;64.00;;;;;;5043588;28;20254;-58
2022/10/30 03:18:42;;;;;;;8.83;5.00;;;19.60;63.90;;;;;;5046195;28;21127;-58
2022/10/30 03:21:10;;;;;;;11.40;5.93;;;19.70;64.40;;;;;;5042309;28;20449;-58
2022/10/30 03:23:36;;;;;;;10.67;4.70;;;19.50;63.50;;;;;;5028100;28;20592;-58
2022/10/30 03:26:02;;;;;;;7.87;5.10;;;19.50;64.10;;;;;;5044481;28;20449;-58
2022/10/30 03:28:29;;;;;;;11.70;5.60;;;19.60;63.90;;;;;;5050731;28;20193;-58
2022/10/30 03:31:25;;;;;;;16.77;5.03;;;19.60;63.50;;;;;;5045059;28;20439;-58
2022/10/30 03:33:50;;;;;;;7.83;5.03;;;19.80;63.10;;;;;;5023050;28;20462;-58
2022/10/30 03:36:16;;;;;;;6.73;5.70;;;19.70;63.00;;;;;;5046017;28;20435;-58
2022/10/30 03:38:42;;;;;;;9.53;5.70;;;19.50;63.10;;;;;;5040715;28;20189;-58
2022/10/30 03:41:08;;;;;;;14.40;5.03;;;19.50;62.90;;;;;;5047679;28;20653;-58
2022/10/30 03:43:34;;;;;;;12.43;5.40;;;19.60;63.80;;;;;;5038723;28;20443;-58
2022/10/30 03:45:59;;;;;;;8.53;5.13;;;19.60;63.00;;;;;;5044766;28;20474;-58
2022/10/30 03:48:27;;;;;;;11.50;5.87;;;19.60;62.70;;;;;;5040399;28;20479;-58
2022/10/30 03:50:57;;;;;;;10.73;5.60;;;19.70;63.10;;;;;;5041048;28;21277;-57
2022/10/30 03:53:25;;;;;;;11.23;5.57;;;19.50;62.60;;;;;;5039341;28;20438;-56
2022/10/30 03:55:50;;;;;;;10.47;5.80;;;19.50;62.70;;;;;;5030069;28;20725;-56
2022/10/30 03:58:16;;;;;;;10.00;6.00;;;19.10;63.00;;;;;;5036157;28;21562;-57
2022/10/30 04:00:42;;;;;;;14.17;7.20;;;18.90;64.40;;;;;;5045468;28;20794;-56
2022/10/30 04:03:08;;;;;;;14.37;6.07;;;18.70;65.20;;;;;;5046607;28;20188;-56
2022/10/30 04:05:35;;;;;;;15.67;5.40;;;18.60;65.40;;;;;;5043533;28;20719;-56
2022/10/30 04:08:03;;;;;;;7.83;5.00;;;18.60;65.50;;;;;;5047655;28;20439;-56
2022/10/30 04:10:29;;;;;;;10.30;5.50;;;18.60;65.10;;;;;;5046050;28;20440;-57
2022/10/30 04:13:02;;;;;;;9.00;5.50;;;18.60;65.10;;;;;;5048825;28;20446;-57
2022/10/30 04:15:28;;;;;;;11.40;5.70;;;18.30;66.10;;;;;;5044979;28;20597;-57
2022/10/30 04:17:54;;;;;;;10.50;5.60;;;18.30;66.20;;;;;;5036400;28;20521;-57
2022/10/30 04:20:21;;;;;;;9.50;6.03;;;18.30;66.20;;;;;;5043017;28;20537;-57
2022/10/30 04:22:47;;;;;;;8.53;6.07;;;18.20;66.30;;;;;;5039860;28;20197;-57
2022/10/30 04:25:13;;;;;;;12.53;6.50;;;18.20;66.80;;;;;;5038110;28;20513;-57
2022/10/30 04:27:42;;;;;;;11.97;5.57;;;18.30;66.30;;;;;;5043540;28;20196;-56
2022/10/30 04:30:10;;;;;;;12.40;5.40;;;18.30;65.90;;;;;;5049604;28;20216;-56
2022/10/30 04:32:36;;;;;;;13.70;5.50;;;18.30;65.70;;;;;;5041459;28;20435;-55
2022/10/30 04:35:03;;;;;;;7.80;5.37;;;18.30;65.50;;;;;;5046269;28;20524;-56
2022/10/30 04:37:29;;;;;;;13.17;6.17;;;18.20;65.90;;;;;;5043923;28;20228;-55
2022/10/30 04:39:55;;;;;;;7.83;5.10;;;18.20;66.10;;;;;;5047574;28;20439;-56
2022/10/30 04:42:20;;;;;;;7.43;4.93;;;18.10;65.80;;;;;;5047660;28;20529;-57
2022/10/30 04:44:46;;;;;;;11.10;5.10;;;18.00;66.40;;;;;;5042669;28;20231;-55
2022/10/30 04:47:11;;;;;;;10.10;5.80;;;17.90;66.80;;;;;;5042356;28;20190;-56
2022/10/30 04:49:37;;;;;;;8.80;4.83;;;17.80;67.70;;;;;;5040812;28;20276;-56
2022/10/30 04:52:02;;;;;;;9.93;5.33;;;17.70;68.20;;;;;;5038864;28;20228;-55
2022/10/30 04:54:28;;;;;;;9.77;5.43;;;17.50;68.60;;;;;;5044143;28;20215;-55
2022/10/30 04:56:53;;;;;;;10.23;5.17;;;17.60;69.00;;;;;;5042452;28;21835;-56
2022/10/30 04:59:19;;;;;;;6.70;5.47;;;17.80;68.10;;;;;;5039253;28;20201;-57
2022/10/30 05:01:45;;;;;;;9.50;6.13;;;17.60;67.80;;;;;;5040374;28;20242;-55
2022/10/30 05:04:10;;;;;;;11.47;5.27;;;17.60;68.00;;;;;;5043292;28;21678;-56
2022/10/30 05:06:37;;;;;;;9.90;4.60;;;17.70;67.60;;;;;;5038845;28;20227;-56
2022/10/30 05:09:02;;;;;;;8.17;5.00;;;17.70;67.50;;;;;;5040275;28;20203;-55
2022/10/30 05:11:28;;;;;;;9.30;6.10;;;17.80;67.20;;;;;;5047078;28;20807;-55
2022/10/30 05:13:53;;;;;;;13.23;5.77;;;17.80;67.00;;;;;;5047047;28;20195;-54
2022/10/30 05:16:19;;;;;;;11.50;5.70;;;17.80;67.10;;;;;;5045089;28;20193;-56
2022/10/30 05:18:45;;;;;;;12.80;5.70;;;17.70;67.20;;;;;;5040788;28;20193;-56
2022/10/30 05:21:10;;;;;;;13.13;5.83;;;17.50;67.50;;;;;;5041784;28;20326;-55
2022/10/30 05:23:36;;;;;;;10.40;6.00;;;17.60;67.80;;;;;;5044896;28;20191;-56
2022/10/30 05:26:01;;;;;;;6.97;5.07;;;17.60;67.20;;;;;;5040859;28;20609;-56
2022/10/30 05:28:27;;;;;;;10.73;5.23;;;17.70;67.10;;;;;;5045752;28;20663;-56
2022/10/30 05:30:53;;;;;;;13.10;6.10;;;17.70;66.80;;;;;;5044922;28;20228;-56
2022/10/30 05:33:19;;;;;;;17.03;5.67;;;17.60;67.40;;;;;;5046584;28;20589;-56
2022/10/30 05:35:44;;;;;;;10.50;5.70;;;17.40;68.70;;;;;;5048650;28;20224;-56
2022/10/30 05:38:11;;;;;;;12.00;5.40;;;17.30;69.20;;;;;;5048147;28;20301;-56
2022/10/30 05:40:37;;;;;;;8.00;5.27;;;17.00;70.00;;;;;;5050490;28;20228;-56
2022/10/30 05:43:03;;;;;;;8.73;5.33;;;16.90;71.10;;;;;;5047155;28;20471;-56
2022/10/30 05:45:29;;;;;;;13.10;5.47;;;17.00;70.60;;;;;;5048063;28;20271;-54
2022/10/30 05:48:05;;;;;;;9.23;5.40;;;16.80;71.30;;;;;;5046269;28;20961;-56
2022/10/30 05:50:31;;;;;;;11.00;5.07;;;16.90;70.70;;;;;;5045936;28;20241;-56
2022/10/30 05:53:01;;;;;;;9.73;5.33;;;16.70;71.40;;;;;;5050301;28;21282;-59
2022/10/30 05:55:28;;;;;;;9.50;5.70;;;16.60;73.00;;;;;;5044476;28;20538;-58
2022/10/30 05:57:59;;;;;;;11.53;5.43;;;16.70;73.10;;;;;;5042087;28;20496;-57
2022/10/30 06:00:26;;;;;;;12.33;5.80;;;16.60;72.90;;;;;;5040220;28;20430;-57
2022/10/30 06:02:58;;;;;;;12.87;5.40;;;16.50;74.20;;;;;;5039253;28;20937;-56
2022/10/30 06:05:24;;;;;;;10.13;5.50;;;16.30;75.00;;;;;;5043946;28;20509;-55
2022/10/30 06:07:49;;;;;;;11.80;6.07;;;16.50;78.00;;;;;;5040895;28;20913;-56
2022/10/30 06:10:15;;;;;;;15.20;6.60;;;16.80;76.80;;;;;;5045439;28;20696;-55
2022/10/30 06:12:40;;;;;;;10.27;6.20;;;17.30;73.90;;;;;;5038906;28;20197;-56
2022/10/30 06:15:06;;;;;;;12.17;5.70;;;17.50;71.10;;;;;;5040351;28;20711;-55
2022/10/30 06:17:32;;;;;;;9.43;6.87;;;17.70;69.70;;;;;;5045158;28;20645;-56
2022/10/30 06:19:57;;;;;;;13.13;5.27;;;17.90;68.40;;;;;;5047465;28;20427;-56
2022/10/30 06:22:23;;;;;;;10.97;5.13;;;18.10;67.00;;;;;;5051685;28;20684;-55
2022/10/30 06:24:48;;;;;;;7.77;5.20;;;18.30;66.50;;;;;;5050580;28;20229;-56
2022/10/30 06:27:14;;;;;;;9.17;5.50;;;18.60;65.70;;;;;;5050449;28;20204;-56
2022/10/30 06:29:39;;;;;;;6.43;5.30;;;18.80;64.50;;;;;;5051674;28;20195;-56
2022/10/30 06:32:05;;;;;;;11.43;4.70;;;19.00;63.40;;;;;;5047754;28;20192;-56
2022/10/30 06:34:31;;;;;;;9.50;5.17;;;18.90;62.20;;;;;;5050333;28;20578;-57
2022/10/30 06:36:56;;;;;;;9.77;5.03;;;18.70;63.30;;;;;;5049389;28;20247;-56
2022/10/30 06:39:22;;;;;;;8.73;4.53;;;18.60;63.90;;;;;;5050296;28;20198;-57
2022/10/30 06:41:47;;;;;;;8.80;4.90;;;18.70;63.70;;;;;;5049579;28;20220;-56
2022/10/30 06:44:13;;;;;;;7.50;4.57;;;18.60;63.70;;;;;;5049483;28;20212;-57
2022/10/30 06:46:38;;;;;;;8.67;5.20;;;18.70;63.70;;;;;;5043685;28;20193;-56
2022/10/30 06:49:04;;;;;;;12.17;5.50;;;18.80;63.00;;;;;;5030985;28;20258;-57
2022/10/30 06:51:30;;;;;;;11.50;5.00;;;19.00;63.00;;;;;;5051088;28;20199;-57
2022/10/30 06:53:56;;;;;;;8.13;5.10;;;19.00;61.90;;;;;;5051628;28;20204;-56
2022/10/30 06:56:21;;;;;;;9.10;4.10;;;19.00;62.40;;;;;;5047907;28;20549;-57
2022/10/30 06:58:47;;;;;;;4.80;4.30;;;19.30;61.20;;;;;;5037371;28;20201;-57
2022/10/30 07:01:12;;;;;;;9.03;4.53;;;19.50;61.30;;;;;;5047602;28;20200;-57
2022/10/30 07:03:38;;;;;;;10.93;5.10;;;19.70;60.00;;;;;;5048808;28;20189;-57
2022/10/30 07:06:04;;;;;;;7.27;4.60;;;20.00;59.60;;;;;;5047993;28;20215;-57
2022/10/30 07:08:29;;;;;;;9.67;5.43;;;20.10;61.10;;;;;;5049539;28;20196;-57
2022/10/30 07:10:57;;;;;;;8.43;4.67;;;20.30;59.10;;;;;;5046739;28;20215;-57
2022/10/30 07:13:23;;;;;;;8.23;4.60;;;20.50;59.30;;;;;;5047490;28;20199;-57
2022/10/30 07:15:48;;;;;;;10.00;4.57;;;20.90;58.30;;;;;;5028475;28;20534;-57
2022/10/30 07:18:14;;;;;;;6.00;4.50;;;21.30;57.40;;;;;;5054715;28;20197;-57
2022/10/30 07:20:39;;;;;;;5.53;4.50;;;21.30;55.80;;;;;;5043839;28;20299;-57
2022/10/30 07:23:05;;;;;;;7.63;4.33;;;21.40;55.70;;;;;;5048776;28;20205;-57
2022/10/30 07:25:30;;;;;;;10.30;4.73;;;21.40;56.10;;;;;;5041889;28;20228;-57
2022/10/30 07:27:56;;;;;;;9.30;4.50;;;21.60;55.40;;;;;;5045425;28;20199;-57
2022/10/30 07:30:24;;;;;;;9.97;4.20;;;21.70;55.40;;;;;;5048293;28;20238;-57
2022/10/30 07:32:58;;;;;;;7.63;4.70;;;21.90;55.00;;;;;;5050246;28;20636;-56
2022/10/30 07:35:23;;;;;;;12.30;5.20;;;22.00;55.00;;;;;;5041551;28;20474;-56
2022/10/30 07:37:49;;;;;;;10.83;4.83;;;22.00;54.40;;;;;;5046234;28;20475;-57
2022/10/30 07:40:15;;;;;;;9.83;5.20;;;22.00;54.50;;;;;;5046694;28;20198;-56
2022/10/30 07:42:40;;;;;;;6.40;4.90;;;22.10;54.60;;;;;;5047390;28;20558;-56
2022/10/30 07:45:06;;;;;;;9.53;5.17;;;21.80;54.10;;;;;;5049202;28;20216;-57
2022/10/30 07:47:32;;;;;;;6.50;4.40;;;21.50;55.00;;;;;;5051949;28;20833;-57
2022/10/30 07:49:57;;;;;;;12.13;4.60;;;21.10;56.10;;;;;;5045452;28;20512;-56
2022/10/30 07:52:23;;;;;;;9.40;5.27;;;21.20;56.30;;;;;;5048974;28;20196;-56
2022/10/30 07:54:49;;;;;;;12.87;5.30;;;21.00;56.60;;;;;;5031406;28;20198;-56
2022/10/30 07:57:14;;;;;;;9.57;4.90;;;20.90;57.50;;;;;;5040007;28;20602;-56
2022/10/30 07:59:40;;;;;;;9.80;4.90;;;21.00;57.40;;;;;;5031322;28;20297;-56
2022/10/30 08:02:07;;;;;;;9.03;5.13;;;21.20;57.10;;;;;;5043443;28;20242;-56
2022/10/30 08:04:32;;;;;;;9.60;4.50;;;20.90;57.70;;;;;;5050246;28;20224;-56
2022/10/30 08:06:58;;;;;;;18.30;5.47;;;20.70;58.00;;;;;;5038993;28;20451;-56
2022/10/30 08:09:23;;;;;;;10.27;4.53;;;20.80;58.10;;;;;;5037637;28;20197;-56
2022/10/30 08:11:49;;;;;;;9.17;5.77;;;20.90;58.20;;;;;;5031943;28;20217;-57
2022/10/30 08:14:14;;;;;;;8.77;4.67;;;21.00;58.10;;;;;;5035534;28;20574;-56
2022/10/30 08:16:40;;;;;;;9.40;4.63;;;21.10;57.80;;;;;;5043681;28;20197;-56
2022/10/30 08:19:05;;;;;;;10.97;5.40;;;20.90;57.30;;;;;;5049861;28;20201;-57
2022/10/30 08:21:31;;;;;;;10.73;4.60;;;20.90;57.80;;;;;;5046582;28;20698;-56
2022/10/30 08:23:57;;;;;;;7.73;4.40;;;20.70;58.00;;;;;;5047965;28;20192;-55
2022/10/30 08:26:22;;;;;;;7.07;4.40;;;20.30;58.80;;;;;;5051641;28;20195;-57
2022/10/30 08:28:48;;;;;;;6.67;4.63;;;20.40;59.30;;;;;;5045174;28;20193;-58
2022/10/30 08:31:13;;;;;;;7.10;4.60;;;20.40;59.00;;;;;;5033582;28;20611;-57
2022/10/30 08:33:39;;;;;;;7.90;4.23;;;20.50;58.90;;;;;;5042360;28;20189;-57
2022/10/30 08:36:06;;;;;;;6.33;4.43;;;20.80;58.50;;;;;;5030994;28;20559;-58
2022/10/30 08:38:33;;;;;;;17.93;4.80;;;21.00;58.10;;;;;;5043457;28;20229;-58
2022/10/30 08:41:01;;;;;;;14.80;4.73;;;20.70;58.20;;;;;;5043866;28;20943;-57
2022/10/30 08:43:26;;;;;;;11.27;4.80;;;20.70;58.50;;;;;;5043476;28;20209;-58
2022/10/30 08:45:52;;;;;;;5.90;4.77;;;20.90;58.50;;;;;;5047976;28;20482;-58
2022/10/30 08:48:17;;;;;;;9.50;3.93;;;21.10;58.30;;;;;;5044383;28;20289;-58
2022/10/30 08:50:43;;;;;;;9.63;4.50;;;21.30;57.80;;;;;;5041509;28;21016;-58
2022/10/30 08:53:12;;;;;;;8.30;4.17;;;21.40;57.90;;;;;;5047362;28;20279;-58
2022/10/30 08:55:37;;;;;;;6.10;4.50;;;21.40;57.00;;;;;;5044543;28;20489;-58
2022/10/30 08:58:03;;;;;;;9.33;5.00;;;21.60;56.70;;;;;;5043842;28;20443;-58
2022/10/30 09:00:29;;;;;;;11.83;4.90;;;21.60;56.90;;;;;;5035621;28;20283;-58
2022/10/30 09:02:55;;;;;;;12.37;5.13;;;22.00;56.80;;;;;;5048291;28;20613;-58
2022/10/30 09:05:21;;;;;;;9.17;4.63;;;22.20;55.80;;;;;;5045466;28;20496;-58
2022/10/30 09:07:47;;;;;;;9.10;4.80;;;22.30;55.80;;;;;;5045213;28;20451;-58
2022/10/30 09:10:13;;;;;;;10.20;4.10;;;22.50;55.50;;;;;;5047200;28;20242;-57
2022/10/30 09:12:39;;;;;;;14.87;4.70;;;22.70;55.00;;;;;;5046007;28;20435;-57
2022/10/30 09:15:06;;;;;;;9.50;4.30;;;23.10;54.20;;;;;;5043602;28;20950;-57
2022/10/30 09:17:31;;;;;;;9.07;3.93;;;23.20;53.50;;;;;;5042947;28;20181;-57
2022/10/30 09:19:57;;;;;;;7.07;4.17;;;23.20;53.40;;;;;;5056373;28;20449;-57
2022/10/30 09:22:23;;;;;;;8.77;4.50;;;23.40;53.00;;;;;;5046591;28;20215;-58
2022/10/30 09:24:48;;;;;;;12.07;3.90;;;23.60;52.20;;;;;;5044576;28;20232;-58
2022/10/30 09:27:14;;;;;;;8.13;4.20;;;23.80;52.30;;;;;;5042164;28;20246;-58
2022/10/30 09:29:39;;;;;;;11.90;5.13;;;24.00;51.60;;;;;;5041323;28;20192;-58
2022/10/30 09:32:09;;;;;;;9.27;3.97;;;24.20;51.30;;;;;;5048410;28;20551;-58
2022/10/30 09:34:37;;;;;;;7.70;3.90;;;24.50;51.00;;;;;;5040678;28;20204;-58
2022/10/30 09:37:03;;;;;;;11.60;4.03;;;24.70;50.70;;;;;;5044201;28;20499;-58
2022/10/30 09:39:29;;;;;;;6.33;4.47;;;25.00;49.90;;;;;;5043081;28;20436;-58
2022/10/30 09:42:06;;;;;;;10.43;4.07;;;25.10;49.10;;;;;;5049378;28;20426;-58
2022/10/30 09:44:50;;;;;;;7.50;4.07;;;25.30;49.50;;;;;;5038686;28;20575;-58
2022/10/30 09:47:39;;;;;;;8.50;4.10;;;25.50;49.10;;;;;;5038580;28;21016;-58
2022/10/30 09:50:31;;;;;;;15.50;4.07;;;25.70;49.10;;;;;;5044891;28;20836;-58
2022/10/30 09:53:02;;;;;;;11.50;4.03;;;25.90;48.70;;;;;;5047920;28;20453;-58
2022/10/30 09:55:30;;;;;;;13.27;4.20;;;26.00;48.00;;;;;;5044609;28;20477;-58
2022/10/30 09:58:14;;;;;;;5.77;3.80;;;26.20;47.90;;;;;;5036788;28;20446;-58
2022/10/30 10:01:06;;;;;;;9.87;3.90;;;26.40;47.30;;;;;;5046362;28;20450;-58
2022/10/30 10:04:00;;;;;;;7.97;3.83;;;26.60;47.70;;;;;;5047963;28;20459;-58
2022/10/30 10:06:27;;;;;;;8.70;4.37;;;26.60;47.20;;;;;;5041547;28;20578;-59
2022/10/30 10:09:05;;;;;;;8.43;3.77;;;26.90;46.90;;;;;;5045708;28;20810;-58
2022/10/30 10:11:38;;;;;;;8.10;4.10;;;27.00;46.80;;;;;;5047141;28;20546;-58
2022/10/30 10:14:16;;;;;;;10.30;4.10;;;27.10;46.00;;;;;;5044482;28;20455;-58
2022/10/30 10:16:47;;;;;;;11.13;4.40;;;27.40;45.60;;;;;;5030659;28;20496;-59
2022/10/30 10:19:12;;;;;;;7.03;3.83;;;27.40;45.70;;;;;;5034633;28;20489;-58
2022/10/30 10:21:52;;;;;;;7.33;4.20;;;27.50;45.50;;;;;;5045383;28;20482;-58
2022/10/30 10:24:22;;;;;;;8.57;4.30;;;27.70;44.50;;;;;;5048395;28;20624;-58
2022/10/30 10:26:52;;;;;;;12.30;4.30;;;27.80;44.50;;;;;;5041408;28;20434;-59
2022/10/30 10:30:02;;;;;;;7.80;4.10;;;28.00;44.30;;;;;;5043467;28;20435;-59
2022/10/30 10:32:27;;;;;;;8.53;4.67;;;28.20;44.50;;;;;;4954706;28;20511;-58
2022/10/30 10:35:06;;;;;;;8.27;4.00;;;28.20;44.00;;;;;;4956782;28;20486;-59
2022/10/30 10:37:36;;;;;;;6.03;3.43;;;28.40;44.60;;;;;;5019444;28;20228;-59
2022/10/30 10:40:15;;;;;;;6.30;3.60;;;28.40;43.60;;;;;;5047656;28;20454;-58
2022/10/30 10:42:53;;;;;;;7.40;3.00;;;28.50;42.80;;;;;;5047175;28;20421;-58
2022/10/30 10:45:50;;;;;;;10.83;3.80;;;28.50;41.90;;;;;;5051474;28;20529;-58
2022/10/30 10:48:19;;;;;;;14.07;4.90;;;28.70;42.00;;;;;;5036007;28;20463;-58
2022/10/30 10:50:51;;;;;;;7.80;3.67;;;28.80;41.90;;;;;;5044173;28;20447;-58
2022/10/30 10:53:23;;;;;;;5.73;3.23;;;28.90;41.80;;;;;;5051697;28;20454;-58
2022/10/30 10:55:52;;;;;;;12.20;3.47;;;28.80;42.70;;;;;;5048195;28;20473;-59
2022/10/30 10:58:30;;;;;;;6.83;3.30;;;28.80;41.20;;;;;;5049149;28;20451;-59
2022/10/30 11:00:57;;;;;;;4.93;3.30;;;28.80;41.20;;;;;;5047141;28;20444;-59
2022/10/30 11:04:12;;;;;;;9.37;3.33;;;28.90;40.10;;;;;;5049402;28;20442;-59
2022/10/30 11:06:40;;;;;;;7.63;4.03;;;29.00;40.40;;;;;;5014726;28;20460;-58
2022/10/30 11:09:20;;;;;;;7.17;2.87;;;29.10;40.20;;;;;;5043950;28;20447;-59
2022/10/30 11:11:50;;;;;;;11.80;3.40;;;29.20;40.60;;;;;;5043467;28;20442;-58
2022/10/30 11:14:22;;;;;;;8.13;3.00;;;29.20;40.00;;;;;;5047594;28;20455;-58
2022/10/30 11:17:05;;;;;;;8.10;3.67;;;29.40;38.40;;;;;;5050496;28;20455;-58
2022/10/30 11:19:31;;;;;;;12.33;4.10;;;29.60;40.20;;;;;;5043709;28;20479;-58
2022/10/30 11:21:59;;;;;;;5.87;3.33;;;29.60;38.50;;;;;;5048924;28;20485;-58
2022/10/30 11:24:33;;;;;;;9.20;3.00;;;29.70;40.30;;;;;;5046849;28;20242;-58
2022/10/30 11:27:27;;;;;;;6.20;3.17;;;29.80;41.80;;;;;;5045303;28;21247;-58
2022/10/30 11:29:59;;;;;;;7.00;3.30;;;30.00;39.80;;;;;;5050084;28;20531;-58
2022/10/30 11:32:30;;;;;;;10.10;3.27;;;30.00;39.00;;;;;;5048718;28;20443;-58
2022/10/30 11:35:19;;;;;;;3.87;3.00;;;29.90;37.30;;;;;;5045489;28;20455;-59
2022/10/30 11:38:08;;;;;;;5.73;3.33;;;30.00;39.70;;;;;;5032831;28;20478;-58
2022/10/30 11:40:33;;;;;;;4.00;2.90;;;30.10;40.50;;;;;;5037188;28;20451;-58
2022/10/30 11:43:02;;;;;;;4.63;3.00;;;30.20;38.40;;;;;;5040444;28;21270;-59
2022/10/30 11:45:47;;;;;;;7.90;3.27;;;30.40;38.00;;;;;;5041090;28;20259;-58
2022/10/30 11:48:32;;;;;;;5.97;3.10;;;30.50;38.80;;;;;;5049364;28;20481;-58
2022/10/30 11:51:00;;;;;;;8.80;3.60;;;30.50;38.40;;;;;;5048837;28;20577;-58
2022/10/30 11:53:40;;;;;;;3.63;3.20;;;30.40;34.70;;;;;;5047497;28;20447;-58
2022/10/30 11:56:35;;;;;;;5.50;3.20;;;30.30;39.70;;;;;;5050513;28;20435;-58
2022/10/30 11:59:03;;;;;;;6.87;3.20;;;30.30;36.50;;;;;;5028439;28;20536;-58
2022/10/30 12:01:37;;;;;;;5.30;2.90;;;30.20;35.50;;;;;;5048535;28;20789;-59
2022/10/30 12:04:24;;;;;;;5.33;3.30;;;30.20;36.00;;;;;;5043720;28;20478;-59
2022/10/30 12:07:15;;;;;;;5.63;3.20;;;30.30;37.50;;;;;;5038656;28;20458;-58
2022/10/30 12:09:46;;;;;;;4.70;2.80;;;30.40;38.00;;;;;;5046534;28;20439;-58
2022/10/30 12:12:23;;;;;;;5.20;2.97;;;30.40;38.20;;;;;;5048288;28;20446;-59
2022/10/30 12:14:50;;;;;;;6.60;3.33;;;30.50;38.70;;;;;;5047051;28;20435;-58
2022/10/30 12:17:17;;;;;;;5.23;3.10;;;30.60;38.50;;;;;;5041564;28;21300;-59
2022/10/30 12:19:53;;;;;;;6.20;2.70;;;30.60;37.70;;;;;;5047521;28;20484;-59
2022/10/30 12:22:31;;;;;;;17.93;3.40;;;30.60;37.10;;;;;;5043508;28;20534;-58
2022/10/30 12:25:16;;;;;;;5.07;3.13;;;30.50;36.50;;;;;;5045351;28;20486;-59
2022/10/30 12:27:42;;;;;;;4.57;3.37;;;30.50;35.70;;;;;;5045651;28;20443;-59
2022/10/30 12:30:18;;;;;;;7.23;3.20;;;30.60;36.60;;;;;;5045052;28;20470;-58
2022/10/30 12:32:57;;;;;;;6.70;2.97;;;30.60;36.30;;;;;;5045004;28;20243;-59
2022/10/30 12:35:43;;;;;;;10.07;3.43;;;30.50;35.60;;;;;;5040484;28;20492;-59
2022/10/30 12:38:20;;;;;;;4.70;3.07;;;30.30;36.10;;;;;;5046137;28;20474;-59
2022/10/30 12:41:09;;;;;;;9.77;3.30;;;30.30;36.30;;;;;;5044314;28;20521;-59
2022/10/30 12:43:35;;;;;;;10.17;3.70;;;30.40;36.20;;;;;;5041518;28;20453;-59
2022/10/30 12:46:37;;;;;;;4.50;2.90;;;30.50;36.50;;;;;;5045278;28;20483;-59
2022/10/30 12:49:14;;;;;;;10.43;3.90;;;30.40;36.40;;;;;;5040035;28;20282;-59
2022/10/30 12:52:04;;;;;;;7.47;3.13;;;30.50;36.30;;;;;;5044577;28;20443;-59
2022/10/30 12:54:48;;;;;;;5.80;2.97;;;30.50;35.60;;;;;;5038856;28;20487;-59
2022/10/30 12:57:38;;;;;;;4.07;3.30;;;30.50;35.50;;;;;;5045278;28;20488;-59